createdAt,value
2017-12-05T00:00:08.145Z,61.50
2017-12-05T00:02:42.054Z,68.50
2017-12-05T00:05:13.442Z,72.50
2017-12-05T00:07:47.959Z,70.00
2017-12-05T00:10:19.077Z,76.50
2017-12-05T00:12:54.414Z,76.50
2017-12-05T00:18:12.658Z,67.25
2017-12-05T00:20:45.583Z,66.25
2017-12-05T00:23:17.812Z,59.50
2017-12-05T00:25:49.472Z,65.00
2017-12-05T00:28:29.306Z,67.25
2017-12-05T00:31:18.011Z,73.25
2017-12-05T00:33:49.865Z,66.25
2017-12-05T00:36:21.991Z,70.50
2017-12-05T00:38:53.492Z,70.50
2017-12-05T00:44:04.004Z,61.50
2017-12-05T00:46:39.003Z,67.50
2017-12-05T00:49:13.517Z,57.00
2017-12-05T00:51:45.693Z,70.75
2017-12-05T00:54:19.076Z,55.25
2017-12-05T00:56:50.882Z,70.25
2017-12-05T00:59:22.974Z,69.50
2017-12-05T01:01:55.380Z,72.75
2017-12-05T01:04:27.370Z,70.50
2017-12-05T01:06:59.198Z,58.75
2017-12-05T01:09:31.386Z,64.50
2017-12-05T01:12:02.228Z,72.00
2017-12-05T01:14:35.792Z,65.75
2017-12-05T01:17:08.870Z,74.00
2017-12-05T01:19:42.739Z,64.50
2017-12-05T01:22:14.829Z,64.25
2017-12-05T01:24:47.769Z,62.75
2017-12-05T01:27:20.351Z,66.75
2017-12-05T01:29:52.149Z,71.00
2017-12-05T01:32:24.232Z,59.75
2017-12-05T01:34:56.240Z,64.75
2017-12-05T01:37:28.534Z,52.50
2017-12-05T01:40:01.534Z,47.00
2017-12-05T01:42:43.761Z,58.75
2017-12-05T01:45:18.327Z,50.75
2017-12-05T01:47:52.447Z,61.25
2017-12-05T01:50:24.456Z,49.25
2017-12-05T01:52:56.244Z,53.00
2017-12-05T01:55:33.421Z,60.00
2017-12-05T01:58:06.919Z,48.25
2017-12-05T02:00:44.397Z,53.50
2017-12-05T02:03:18.303Z,53.00
2017-12-05T02:05:59.607Z,48.75
2017-12-05T02:08:33.619Z,53.25
2017-12-05T02:11:06.643Z,43.75
2017-12-05T02:13:41.834Z,44.00
2017-12-05T02:16:15.217Z,43.25
2017-12-05T02:18:50.415Z,46.75
2017-12-05T02:21:24.220Z,51.25
2017-12-05T02:23:57.634Z,54.50
2017-12-05T02:26:29.624Z,50.00
2017-12-05T02:29:02.318Z,40.75
2017-12-05T02:31:38.913Z,44.50
2017-12-05T02:34:13.910Z,49.50
2017-12-05T02:36:47.720Z,46.00
2017-12-05T02:39:20.618Z,40.00
2017-12-05T02:41:53.582Z,46.25
2017-12-05T02:44:29.404Z,40.75
2017-12-05T02:47:03.595Z,39.75
2017-12-05T02:49:41.100Z,43.50
2017-12-05T02:52:15.509Z,40.25
2017-12-05T02:54:51.804Z,35.75
2017-12-05T02:57:26.627Z,40.00
2017-12-05T03:00:05.201Z,35.25
2017-12-05T03:02:44.103Z,46.25
2017-12-05T03:05:16.605Z,36.50
2017-12-05T03:07:49.100Z,36.00
2017-12-05T03:10:23.001Z,41.75
2017-12-05T03:12:57.305Z,37.50
2017-12-05T03:15:33.008Z,25.00
2017-12-05T03:18:06.307Z,34.00
2017-12-05T03:20:40.905Z,34.00
2017-12-05T03:23:16.093Z,32.75
2017-12-05T03:25:51.208Z,32.25
2017-12-05T03:28:23.710Z,29.00
2017-12-05T03:30:57.021Z,30.00
2017-12-05T03:33:30.901Z,41.50
2017-12-05T03:36:03.615Z,34.25
2017-12-05T03:38:39.942Z,31.25
2017-12-05T03:41:13.551Z,29.50
2017-12-05T03:43:49.642Z,27.50
2017-12-05T03:46:23.354Z,28.75
2017-12-05T03:48:57.159Z,36.50
2017-12-05T03:51:31.659Z,28.75
2017-12-05T03:54:04.793Z,29.75
2017-12-05T03:56:38.187Z,33.75
2017-12-05T03:59:12.804Z,33.00
2017-12-05T04:01:46.402Z,28.00
2017-12-05T04:04:21.695Z,28.50
2017-12-05T04:06:54.292Z,24.00
2017-12-05T04:09:27.806Z,33.50
2017-12-05T04:12:00.785Z,28.25
2017-12-05T04:17:16.404Z,22.75
2017-12-05T04:22:34.864Z,28.25
2017-12-05T04:25:13.760Z,33.75
2017-12-05T04:27:46.971Z,30.25
2017-12-05T04:30:21.772Z,30.00
2017-12-05T04:32:56.174Z,28.00
2017-12-05T04:35:29.881Z,27.75
2017-12-05T04:38:01.980Z,28.00
2017-12-05T04:40:34.282Z,31.25
2017-12-05T04:43:07.386Z,35.00
2017-12-05T04:48:28.199Z,32.25
2017-12-05T04:51:03.908Z,29.25
2017-12-05T04:53:38.404Z,42.25
2017-12-05T04:56:17.124Z,36.75
2017-12-05T04:58:50.609Z,42.50
2017-12-05T05:01:23.908Z,34.25
2017-12-05T05:03:58.115Z,40.00
2017-12-05T05:06:37.816Z,41.50
2017-12-05T05:09:11.511Z,44.75
2017-12-05T05:11:46.486Z,40.75
2017-12-05T05:14:19.916Z,37.25
2017-12-05T05:16:53.152Z,50.25
2017-12-05T05:19:26.517Z,35.75
2017-12-05T05:22:00.111Z,37.25
2017-12-05T05:24:35.116Z,47.00
2017-12-05T05:27:08.811Z,42.75
2017-12-05T05:29:48.632Z,42.50
2017-12-05T05:32:21.600Z,47.00
2017-12-05T05:34:54.052Z,45.00
2017-12-05T05:37:33.000Z,58.75
2017-12-05T05:40:06.610Z,51.00
2017-12-05T05:42:40.038Z,45.00
2017-12-05T05:45:17.790Z,52.25
2017-12-05T05:47:58.349Z,55.25
2017-12-05T05:50:32.013Z,62.00
2017-12-05T05:53:04.706Z,50.75
2017-12-05T05:55:36.699Z,50.25
2017-12-05T05:58:09.891Z,54.50
2017-12-05T06:00:53.151Z,56.00
2017-12-05T06:03:25.481Z,54.25
2017-12-05T06:05:58.192Z,58.00
2017-12-05T06:08:31.679Z,62.00
2017-12-05T06:11:04.177Z,57.50
2017-12-05T06:13:36.682Z,48.50
2017-12-05T06:16:12.010Z,61.75
2017-12-05T06:18:47.876Z,64.25
2017-12-05T06:21:25.793Z,56.75
2017-12-05T06:24:01.664Z,69.75
2017-12-05T06:26:42.768Z,68.00
2017-12-05T06:29:15.373Z,53.25
2017-12-05T06:32:02.511Z,65.00
2017-12-05T06:34:35.783Z,69.00
2017-12-05T06:37:13.569Z,61.75
2017-12-05T06:39:46.763Z,62.00
2017-12-05T06:42:35.828Z,54.50
2017-12-05T06:45:10.897Z,70.75
2017-12-05T06:47:46.473Z,54.75
2017-12-05T06:50:23.986Z,58.75
2017-12-05T06:52:59.594Z,61.25
2017-12-05T06:55:33.094Z,62.00
2017-12-05T06:58:07.189Z,60.50
2017-12-05T07:00:42.587Z,54.75
2017-12-05T07:03:18.893Z,61.25
2017-12-05T07:05:51.797Z,70.00
2017-12-05T07:08:27.372Z,61.75
2017-12-05T07:11:01.993Z,63.00
2017-12-05T07:13:36.723Z,75.00
2017-12-05T07:16:25.690Z,57.25
2017-12-05T07:19:07.346Z,59.50
2017-12-05T07:21:48.771Z,72.00
2017-12-05T07:24:27.831Z,63.25
2017-12-05T07:27:02.240Z,75.50
2017-12-05T07:29:56.350Z,56.00
2017-12-05T07:32:52.790Z,73.50
2017-12-05T07:35:30.237Z,65.75
2017-12-05T07:38:05.548Z,59.75
2017-12-05T07:40:51.412Z,64.50
2017-12-05T07:43:25.944Z,75.00
2017-12-05T07:45:59.958Z,70.50
2017-12-05T07:48:34.246Z,71.00
2017-12-05T07:51:14.246Z,64.75
2017-12-05T07:53:55.530Z,60.25
2017-12-05T07:56:32.232Z,61.50
2017-12-05T07:59:07.017Z,74.00
2017-12-05T08:01:41.216Z,67.75
2017-12-05T08:04:17.014Z,69.25
2017-12-05T08:06:58.228Z,60.75
2017-12-05T08:09:35.314Z,54.75
2017-12-05T08:12:12.741Z,61.25
2017-12-05T08:14:50.530Z,64.25
2017-12-05T08:17:27.628Z,75.00
2017-12-05T08:20:04.212Z,71.25
2017-12-05T08:22:38.921Z,63.75
2017-12-05T08:25:12.210Z,67.75
2017-12-05T08:27:45.918Z,60.75
2017-12-05T08:30:21.312Z,66.75
2017-12-05T08:32:55.116Z,66.25
2017-12-05T08:35:43.609Z,72.00
2017-12-05T08:38:19.655Z,67.75
2017-12-05T08:40:55.766Z,55.75
2017-12-05T08:43:28.623Z,61.00
2017-12-05T08:46:03.513Z,74.50
2017-12-05T08:48:36.915Z,56.75
2017-12-05T08:51:11.920Z,62.00
2017-12-05T08:53:45.505Z,71.00
2017-12-05T08:56:21.533Z,67.00
2017-12-05T08:59:04.410Z,68.75
2017-12-05T09:02:03.151Z,53.50
2017-12-05T09:04:52.468Z,61.00
2017-12-05T09:07:26.354Z,67.25
2017-12-05T09:10:00.067Z,54.25
2017-12-05T09:12:33.572Z,71.00
2017-12-05T09:15:23.500Z,69.50
2017-12-05T09:18:03.782Z,63.50
2017-12-05T09:20:53.679Z,65.50
2017-12-05T09:23:29.697Z,63.25
2017-12-05T09:26:06.710Z,52.50
2017-12-05T09:28:41.091Z,67.50
2017-12-05T09:31:19.624Z,57.50
2017-12-05T09:33:55.512Z,59.50
2017-12-05T09:36:34.733Z,67.00
2017-12-05T09:39:09.088Z,68.00
2017-12-05T09:41:44.060Z,56.25
2017-12-05T09:44:18.471Z,63.75
2017-12-05T09:46:55.277Z,71.00
2017-12-05T09:49:28.168Z,65.00
2017-12-05T09:52:02.880Z,58.00
2017-12-05T09:54:37.366Z,61.50
2017-12-05T09:57:12.363Z,63.00
2017-12-05T09:59:48.466Z,72.50
2017-12-05T10:02:21.764Z,70.75
2017-12-05T10:04:56.728Z,72.00
2017-12-05T10:07:31.702Z,73.25
2017-12-05T10:10:06.559Z,63.50
2017-12-05T10:12:41.786Z,68.00
2017-12-05T10:15:18.168Z,64.25
2017-12-05T10:17:55.261Z,66.75
2017-12-05T10:20:28.853Z,69.25
2017-12-05T10:23:03.279Z,61.25
2017-12-05T10:25:36.516Z,70.00
2017-12-05T10:28:10.448Z,59.75
2017-12-05T10:30:47.066Z,65.00
2017-12-05T10:33:23.356Z,61.00
2017-12-05T10:36:01.548Z,67.00
2017-12-05T10:38:49.061Z,64.25
2017-12-05T10:41:27.642Z,71.00
2017-12-05T10:44:03.729Z,66.00
2017-12-05T10:46:48.281Z,62.75
2017-12-05T10:49:31.258Z,58.00
2017-12-05T10:52:16.091Z,65.25
2017-12-05T10:54:55.154Z,52.50
2017-12-05T10:57:31.820Z,60.50
2017-12-05T11:00:11.009Z,50.50
2017-12-05T11:03:04.779Z,63.75
2017-12-05T11:05:49.640Z,59.00
2017-12-05T11:08:27.447Z,58.25
2017-12-05T11:11:02.774Z,65.50
2017-12-05T11:13:36.657Z,56.25
2017-12-05T11:16:11.172Z,65.25
2017-12-05T11:18:44.809Z,64.75
2017-12-05T11:21:23.230Z,49.75
2017-12-05T11:24:01.001Z,70.75
2017-12-05T11:26:36.611Z,67.50
2017-12-05T11:29:11.895Z,55.75
2017-12-05T11:34:31.092Z,63.50
2017-12-05T11:37:06.797Z,62.50
2017-12-05T11:39:48.714Z,56.25
2017-12-05T11:42:25.985Z,52.75
2017-12-05T11:45:04.231Z,64.75
2017-12-05T11:47:39.387Z,55.50
2017-12-05T11:50:15.563Z,66.50
2017-12-05T11:52:52.722Z,69.00
2017-12-05T11:55:28.755Z,59.25
2017-12-05T11:58:08.357Z,57.00
2017-12-05T12:00:43.455Z,56.25
2017-12-05T12:03:21.651Z,70.75
2017-12-05T12:05:55.479Z,63.50
2017-12-05T12:08:30.793Z,62.50
2017-12-05T12:11:08.974Z,53.50
2017-12-05T12:13:51.052Z,67.00
2017-12-05T12:16:27.165Z,70.50
2017-12-05T12:19:09.045Z,64.00
2017-12-05T12:21:48.012Z,57.25
2017-12-05T12:24:26.620Z,53.50
2017-12-05T12:27:04.057Z,65.50
2017-12-05T12:29:39.695Z,63.75
2017-12-05T12:32:31.123Z,67.75
2017-12-05T12:35:09.177Z,61.00
2017-12-05T12:37:43.975Z,62.25
2017-12-05T12:40:23.874Z,50.50
2017-12-05T12:43:04.989Z,53.00
2017-12-05T12:45:47.164Z,53.00
2017-12-05T12:48:21.381Z,59.00
2017-12-05T12:51:04.228Z,64.75
2017-12-05T12:53:58.119Z,62.50
2017-12-05T12:56:34.090Z,64.00
2017-12-05T12:59:10.459Z,57.75
2017-12-05T13:01:48.972Z,52.25
2017-12-05T13:04:28.058Z,57.25
2017-12-05T13:07:10.285Z,56.25
2017-12-05T13:10:18.351Z,56.25
2017-12-05T13:12:57.458Z,74.00
2017-12-05T13:15:32.323Z,64.75
2017-12-05T13:18:11.637Z,68.75
2017-12-05T13:20:56.047Z,65.50
2017-12-05T13:23:32.607Z,61.00
2017-12-05T13:26:08.353Z,53.25
2017-12-05T13:28:44.438Z,58.00
2017-12-05T13:31:17.843Z,60.00
2017-12-05T13:33:56.155Z,54.75
2017-12-05T13:36:33.061Z,60.25
2017-12-05T13:39:17.374Z,60.75
2017-12-05T13:41:56.784Z,48.50
2017-12-05T13:44:32.384Z,53.25
2017-12-05T13:47:05.509Z,62.50
2017-12-05T13:49:39.897Z,55.75
2017-12-05T13:52:25.813Z,50.00
2017-12-05T13:55:03.404Z,47.75
2017-12-05T13:57:38.087Z,62.50
2017-12-05T14:00:17.703Z,42.75
2017-12-05T14:02:54.097Z,47.75
2017-12-05T14:05:31.302Z,49.25
2017-12-05T14:08:05.616Z,50.75
2017-12-05T14:10:46.605Z,57.50
2017-12-05T14:13:20.508Z,59.00
2017-12-05T14:15:55.310Z,54.25
2017-12-05T14:18:30.107Z,59.50
2017-12-05T14:21:12.313Z,48.50
2017-12-05T14:23:44.908Z,50.75
2017-12-05T14:26:17.411Z,54.75
2017-12-05T14:29:01.907Z,49.75
2017-12-05T14:31:36.512Z,54.25
2017-12-05T14:34:11.342Z,59.75
2017-12-05T14:36:57.408Z,60.75
2017-12-05T14:39:33.814Z,52.25
2017-12-05T14:42:09.810Z,50.00
2017-12-05T14:44:46.607Z,59.25
2017-12-05T14:47:21.314Z,59.25
2017-12-05T14:49:55.507Z,49.50
2017-12-05T14:52:28.702Z,67.25
2017-12-05T14:55:01.320Z,53.00
2017-12-05T14:57:34.092Z,50.75
2017-12-05T15:00:22.324Z,57.75
2017-12-05T15:03:02.613Z,60.50
2017-12-05T15:05:38.850Z,46.25
2017-12-05T15:08:21.132Z,60.50
2017-12-05T15:11:07.215Z,64.00
2017-12-05T15:13:50.397Z,53.75
2017-12-05T15:16:49.970Z,49.00
2017-12-05T15:19:24.495Z,55.75
2017-12-05T15:22:00.927Z,47.50
2017-12-05T15:24:48.342Z,50.25
2017-12-05T15:27:21.043Z,47.50
2017-12-05T15:29:59.143Z,50.50
2017-12-05T15:32:42.075Z,47.00
2017-12-05T15:35:24.069Z,45.00
2017-12-05T15:38:04.794Z,48.75
2017-12-05T15:40:53.251Z,45.50
2017-12-05T15:43:34.352Z,54.00
2017-12-05T15:46:17.102Z,57.25
2017-12-05T15:48:56.922Z,50.25
2017-12-05T15:51:35.252Z,60.50
2017-12-05T15:54:18.067Z,43.50
2017-12-05T15:56:55.957Z,52.25
2017-12-05T15:59:29.546Z,56.50
2017-12-05T16:02:10.250Z,45.25
2017-12-05T16:04:44.376Z,61.75
2017-12-05T16:07:23.209Z,45.50
2017-12-05T16:10:01.693Z,52.75
2017-12-05T16:12:39.688Z,53.50
2017-12-05T16:15:27.889Z,53.00
2017-12-05T16:18:13.058Z,51.75
2017-12-05T16:20:54.448Z,60.75
2017-12-05T16:26:17.362Z,48.00
2017-12-05T16:28:50.786Z,49.00
2017-12-05T16:31:24.750Z,51.75
2017-12-05T16:36:59.393Z,51.75
2017-12-05T16:39:35.795Z,54.25
2017-12-05T16:42:10.300Z,45.25
2017-12-05T16:44:46.799Z,53.00
2017-12-05T16:47:26.407Z,52.50
2017-12-05T16:50:07.218Z,49.50
2017-12-05T16:52:41.737Z,51.25
2017-12-05T16:55:18.231Z,47.00
2017-12-05T16:57:59.075Z,50.25
2017-12-05T17:00:34.073Z,51.25
2017-12-05T17:03:10.205Z,40.75
2017-12-05T17:05:50.604Z,52.75
2017-12-05T17:08:35.222Z,51.75
2017-12-05T17:11:13.715Z,49.25
2017-12-05T17:13:49.496Z,47.00
2017-12-05T17:16:28.628Z,50.50
2017-12-05T17:19:07.005Z,49.75
2017-12-05T17:21:42.953Z,58.50
2017-12-05T17:24:23.770Z,47.25
2017-12-05T17:26:59.910Z,44.25
2017-12-05T17:29:37.895Z,61.50
2017-12-05T17:32:27.436Z,44.00
2017-12-05T17:35:06.658Z,51.00
2017-12-05T17:40:39.059Z,52.75
2017-12-05T17:43:15.721Z,53.00
2017-12-05T17:45:50.308Z,55.50
2017-12-05T17:48:23.078Z,56.25
2017-12-05T17:50:56.559Z,53.00
2017-12-05T17:53:30.441Z,57.00
2017-12-05T17:56:13.034Z,52.00
2017-12-05T17:58:50.987Z,43.25
2017-12-05T18:07:33.596Z,44.75
2017-12-05T18:10:12.914Z,55.25
2017-12-05T18:12:46.382Z,60.75
2017-12-05T18:15:21.693Z,45.25
2017-12-05T18:17:58.576Z,53.75
2017-12-05T18:20:39.093Z,49.25
2017-12-05T18:23:20.899Z,59.50
2017-12-05T18:25:56.149Z,48.75
2017-12-05T18:28:40.594Z,60.00
2017-12-05T18:31:38.892Z,53.50
2017-12-05T18:34:24.813Z,47.25
2017-12-05T18:37:18.792Z,62.75
2017-12-05T18:39:59.488Z,58.00
2017-12-05T18:42:36.597Z,66.00
2017-12-05T18:45:19.836Z,46.50
2017-12-05T18:47:58.601Z,59.00
2017-12-05T18:50:37.818Z,55.00
2017-12-05T18:53:14.703Z,57.75
2017-12-05T18:55:48.403Z,58.00
2017-12-05T18:58:26.902Z,50.75
2017-12-05T19:01:02.507Z,49.50
2017-12-05T19:03:46.612Z,42.00
2017-12-05T19:06:26.695Z,49.00
2017-12-05T19:09:03.857Z,48.50
2017-12-05T19:11:39.059Z,45.75
2017-12-05T19:14:22.996Z,42.25
2017-12-05T19:16:57.502Z,49.00
2017-12-05T19:19:38.564Z,51.50
2017-12-05T19:22:23.191Z,48.75
2017-12-05T19:25:02.428Z,53.50
2017-12-05T19:27:42.050Z,45.75
2017-12-05T19:30:25.407Z,48.75
2017-12-05T19:32:59.904Z,43.00
2017-12-05T19:35:43.653Z,40.75
2017-12-05T19:38:22.596Z,43.00
2017-12-05T19:44:00.215Z,49.75
2017-12-05T19:46:48.401Z,65.50
2017-12-05T19:49:30.612Z,49.25
2017-12-05T19:52:07.330Z,45.50
2017-12-05T19:54:45.537Z,47.25
2017-12-05T19:57:19.927Z,45.75
2017-12-05T19:59:57.808Z,45.75
2017-12-05T20:02:33.109Z,46.00
2017-12-05T20:05:06.706Z,42.00
2017-12-05T20:07:43.723Z,39.75
2017-12-05T20:10:18.922Z,43.75
2017-12-05T20:12:59.603Z,44.25
2017-12-05T20:15:38.326Z,46.75
2017-12-05T20:18:12.512Z,49.75
2017-12-05T20:20:48.758Z,51.00
2017-12-05T20:23:27.620Z,42.75
2017-12-05T20:26:01.927Z,40.25
2017-12-05T20:28:39.954Z,43.75
2017-12-05T20:31:15.077Z,44.75
2017-12-05T20:33:59.745Z,53.25
2017-12-05T20:36:41.356Z,42.75
2017-12-05T20:39:21.596Z,51.75
2017-12-05T20:41:55.903Z,46.25
2017-12-05T20:44:32.760Z,45.75
2017-12-05T20:47:05.884Z,50.50
2017-12-05T20:49:46.600Z,43.25
2017-12-05T20:52:21.497Z,45.25
2017-12-05T20:55:00.773Z,43.00
2017-12-05T20:57:35.084Z,48.50
2017-12-05T21:00:15.768Z,39.75
2017-12-05T21:02:49.566Z,42.50
2017-12-05T21:05:24.093Z,37.25
2017-12-05T21:07:58.363Z,38.00
2017-12-05T21:10:31.456Z,46.75
2017-12-05T21:13:07.857Z,33.25
2017-12-05T21:15:41.392Z,40.75
2017-12-05T21:18:14.968Z,47.50
2017-12-05T21:20:52.595Z,37.00
2017-12-05T21:23:26.288Z,38.75
2017-12-05T21:26:00.025Z,36.75
2017-12-05T21:31:25.649Z,43.25
2017-12-05T21:34:00.701Z,45.00
2017-12-05T21:36:46.592Z,45.25
2017-12-05T21:39:24.411Z,48.50
2017-12-05T21:41:59.447Z,44.00
2017-12-05T21:44:38.814Z,52.75
2017-12-05T21:47:24.341Z,38.00
2017-12-05T21:49:59.667Z,49.75
2017-12-05T21:52:38.726Z,46.75
2017-12-05T21:55:12.022Z,46.75
2017-12-05T21:57:47.108Z,43.00
2017-12-05T22:00:27.033Z,41.75
2017-12-05T22:03:02.917Z,47.00
2017-12-05T22:05:46.822Z,40.50
2017-12-05T22:08:23.589Z,41.25
2017-12-05T22:11:05.115Z,42.25
2017-12-05T22:16:30.155Z,42.50
2017-12-05T22:19:06.223Z,37.75
2017-12-05T22:21:44.003Z,49.50
2017-12-05T22:24:27.814Z,37.75
2017-12-05T22:27:04.810Z,45.50
2017-12-05T22:29:37.686Z,36.00
2017-12-05T22:32:15.684Z,44.50
2017-12-05T22:34:54.190Z,41.00
2017-12-05T22:37:30.449Z,42.25
2017-12-05T22:40:12.086Z,47.00
2017-12-05T22:42:49.475Z,40.00
2017-12-05T22:45:31.960Z,44.50
2017-12-05T22:48:06.464Z,46.75
2017-12-05T22:50:42.957Z,46.75
2017-12-05T22:53:15.778Z,49.50
2017-12-05T22:55:51.059Z,38.00
2017-12-05T22:58:24.901Z,49.50
2017-12-05T23:01:01.041Z,39.75
2017-12-05T23:03:34.267Z,51.25
2017-12-05T23:06:07.171Z,42.75
2017-12-05T23:08:41.560Z,55.25
2017-12-05T23:11:20.657Z,50.50
2017-12-05T23:16:37.592Z,44.75
2017-12-05T23:19:17.583Z,44.50
2017-12-05T23:21:51.585Z,43.00
2017-12-05T23:24:25.388Z,46.75
2017-12-05T23:27:00.892Z,48.75
2017-12-05T23:29:34.097Z,49.00
2017-12-05T23:32:08.189Z,58.00
2017-12-05T23:34:50.784Z,47.50
2017-12-05T23:37:24.900Z,46.75
2017-12-05T23:40:03.106Z,50.25
2017-12-05T23:42:40.111Z,42.25
2017-12-05T23:45:21.292Z,44.50
2017-12-05T23:47:57.000Z,37.50
2017-12-05T23:50:31.057Z,40.25
2017-12-05T23:53:05.834Z,47.25
2017-12-05T23:55:41.310Z,52.00
2017-12-05T23:58:17.905Z,45.25
